イスタンブル の空港の天気 - METARとTAF

アタテュルク国際空港(イスタンブル) ( LTBA / IST ) - トルコ イスタンブル
飛行場実況気象(Metar)
観測時間04/16 14:20 EET (04/16 11:20 UTC)
風向・風速東北東 4m/s
視程10km以上
天気現象
全天の4割程度の雲 雲底高度 1070m
気温15℃
湿度55%
気圧1019hPa
METARLTBA 161120Z 06008KT 010V090 9999 SCT035 15/06 Q1019 NOSIG RMK RWY23 05010KT 010V080
過去の天気等 Google飛行場航空写真 Wunderground天気予報

過去48時間のMETAR

飛行場予報(TAF)
発表時間: 4/16 13:40 EET (4/16 10:40 UTC)
予報対象時間: 16日15時 EET ~ 17日21時 EET
風向・風速北東 6m/s
視程10km以上
全天の4割程度の雲 雲底高度 910m
全天の8割程度の雲 雲底高度 2740m
16日21時 EET ~ 16日24時 EET に徐々に
天気現象弱いしゅう雨
全天の8割程度の雲 雲底高度 760m
17日15時 EET ~ 17日18時 EET に徐々に
風向・風速北東 9m/s 瞬間風速 14m/s
全天の4割程度の雲 雲底高度 910m
TAF LTBA 161040Z 1612/1718 05012KT 9999 SCT030 BKN090
BECMG 1618/1621 -SHRA BKN025
BECMG 1712/1715 05018G28KT SCT030